Time;durP1;ratioP1;P1;durP2;ratioP2;P2;SDS_P1;SDS_P2;PMS_P1;PMS_P2;Temp;Humidity;BMP_temperature;BMP_pressure;BME280_temperature;BME280_humidity;BME280_pressure;Samples;Min_cycle;Max_cycle;Signal;HPM_P1;HPM_P2
2022/06/08 00:01:27;;;;;;;8.35;7.35;;;;;;;20.27;57.88;100844.50;4934858;29;20027;-87
2022/06/08 00:03:54;;;;;;;11.40;7.72;;;;;;;20.11;58.46;100817.88;4967122;28;20485;-87
2022/06/08 00:06:20;;;;;;;10.55;7.38;;;;;;;20.20;58.41;100830.22;4935510;29;20483;-87
2022/06/08 00:08:46;;;;;;;11.77;7.90;;;;;;;20.14;58.45;100828.94;4968626;28;20063;-86
2022/06/08 00:11:11;;;;;;;10.13;7.70;;;;;;;20.08;58.99;100834.75;4939061;29;20118;-87
2022/06/08 00:13:37;;;;;;;12.18;8.10;;;;;;;20.07;59.17;100830.47;4938879;29;20046;-87
2022/06/08 00:16:03;;;;;;;9.30;7.53;;;;;;;20.01;58.91;100823.09;4951001;29;20542;-87
2022/06/08 00:18:29;;;;;;;11.07;8.25;;;;;;;19.91;59.33;100823.06;4904313;29;20051;-87
2022/06/08 00:20:54;;;;;;;9.10;8.05;;;;;;;19.86;59.20;100811.25;4936071;29;20500;-87
2022/06/08 00:23:20;;;;;;;12.40;8.13;;;;;;;19.74;59.53;100816.59;4920140;29;20035;-88
2022/06/08 00:25:46;;;;;;;16.13;7.93;;;;;;;19.77;59.53;100816.34;4919871;29;20074;-87
2022/06/08 00:28:11;;;;;;;17.33;8.32;;;;;;;19.68;59.66;100822.38;4920093;29;20528;-87
2022/06/08 00:30:37;;;;;;;11.77;8.27;;;;;;;19.63;60.03;100813.22;4919406;29;20066;-86
2022/06/08 00:33:02;;;;;;;13.43;8.43;;;;;;;19.56;59.79;100812.06;4935405;29;20043;-86
2022/06/08 00:35:28;;;;;;;8.88;7.85;;;;;;;19.66;59.97;100812.94;4935209;29;20066;-86
2022/06/08 00:37:53;;;;;;;10.73;8.40;;;;;;;19.71;59.96;100813.41;4919610;29;20039;-87
2022/06/08 00:40:20;;;;;;;11.50;8.02;;;;;;;19.60;60.08;100797.72;4935088;29;20079;-86
2022/06/08 00:42:45;;;;;;;10.32;8.32;;;;;;;19.60;60.39;100806.44;4919598;29;20091;-88
2022/06/08 00:45:15;;;;;;;9.90;8.15;;;;;;;19.54;59.92;100783.28;4919178;29;20035;-86
2022/06/08 00:47:59;;;;;;;11.80;8.48;;;;;;;19.43;60.22;100781.56;4919919;29;20028;-87
2022/06/08 00:50:35;;;;;;;11.93;8.90;;;;;;;19.49;59.94;100790.72;4905066;29;20024;-86
2022/06/08 00:53:01;;;;;;;13.30;8.88;;;;;;;19.49;60.32;100790.72;4935490;28;20417;-88
2022/06/08 00:55:28;;;;;;;9.82;8.50;;;;;;;19.42;60.47;100785.16;4903535;29;20031;-86
2022/06/08 00:57:56;;;;;;;11.02;8.65;;;;;;;19.38;60.38;100782.94;4919336;29;20031;-86
2022/06/08 01:00:30;;;;;;;12.20;9.02;;;;;;;19.15;60.43;100764.66;4934874;28;20043;-87
2022/06/08 01:02:56;;;;;;;11.32;8.90;;;;;;;19.23;60.65;100792.06;4935417;28;20031;-87
2022/06/08 01:05:44;;;;;;;12.27;8.63;;;;;;;19.18;61.20;100802.94;4918736;29;20130;-87
2022/06/08 01:08:21;;;;;;;12.52;8.90;;;;;;;19.13;61.30;100790.19;4934925;29;20035;-86
2022/06/08 01:10:48;;;;;;;12.00;8.75;;;;;;;19.17;61.28;100801.25;4936070;29;20027;-86
2022/06/08 01:13:14;;;;;;;12.38;8.55;;;;;;;19.07;61.70;100797.72;4918803;29;20047;-86
2022/06/08 01:15:39;;;;;;;11.90;8.95;;;;;;;19.04;61.92;100784.88;4918118;29;20043;-86
2022/06/08 01:18:05;;;;;;;12.13;8.60;;;;;;;18.97;61.78;100768.78;4918928;29;20024;-87
2022/06/08 01:20:31;;;;;;;16.35;8.52;;;;;;;19.03;62.02;100799.75;4918495;29;20553;-87
2022/06/08 01:22:56;;;;;;;11.25;8.82;;;;;;;18.91;61.75;100777.19;4903118;29;20031;-88
2022/06/08 01:25:22;;;;;;;11.95;8.50;;;;;;;18.98;62.12;100801.13;4902985;29;20401;-87
2022/06/08 01:28:32;;;;;;;13.68;8.25;;;;;;;18.91;62.36;100795.53;4902972;29;20433;-88
2022/06/08 01:31:00;;;;;;;10.32;8.32;;;;;;;18.77;62.40;100783.50;4925230;29;20100;-87
2022/06/08 01:34:20;;;;;;;9.52;8.52;;;;;;;18.81;62.52;100776.25;4918632;29;20421;-86
2022/06/08 01:36:52;;;;;;;9.60;8.55;;;;;;;18.76;63.01;100784.47;4895259;29;20044;-85
2022/06/08 01:39:26;;;;;;;9.75;8.65;;;;;;;18.69;63.01;100779.88;4932783;29;20133;-88
2022/06/08 01:42:26;;;;;;;13.45;9.30;;;;;;;18.73;62.78;100779.50;4934900;29;20067;-88
2022/06/08 01:48:01;;;;;;;13.27;8.38;;;;;;;18.79;62.71;100797.34;4932071;29;20055;-87
2022/06/08 01:50:26;;;;;;;14.40;9.02;;;;;;;18.72;63.15;100796.19;4949959;29;20039;-87
2022/06/08 01:53:03;;;;;;;11.45;9.07;;;;;;;18.70;63.41;100777.13;4935395;29;20032;-88
2022/06/08 01:55:49;;;;;;;11.20;9.02;;;;;;;18.71;63.31;100783.19;4949931;29;20031;-86
2022/06/08 01:58:25;;;;;;;12.50;9.55;;;;;;;18.39;63.62;100757.75;4917694;29;20079;-87
2022/06/08 02:01:16;;;;;;;13.45;9.07;;;;;;;18.58;63.35;100778.06;4918093;29;20465;-87
2022/06/08 02:03:50;;;;;;;14.38;8.93;;;;;;;18.55;63.25;100779.16;4927944;29;20039;-86
2022/06/08 02:06:21;;;;;;;14.13;9.30;;;;;;;18.54;63.38;100781.88;4933931;29;20031;-87
2022/06/08 02:08:48;;;;;;;11.82;8.70;;;;;;;18.54;63.65;100782.72;4933503;29;20024;-87
2022/06/08 02:11:42;;;;;;;12.57;9.18;;;;;;;18.62;63.22;100780.31;4934002;29;20035;-86
2022/06/08 02:14:19;;;;;;;12.20;8.63;;;;;;;18.49;63.54;100774.41;4916495;29;20150;-87
2022/06/08 02:16:59;;;;;;;12.02;9.88;;;;;;;18.52;63.33;100773.31;4951128;29;20023;-86
2022/06/08 02:19:29;;;;;;;11.65;9.15;;;;;;;18.49;63.28;100774.41;4952057;29;20122;-86
2022/06/08 02:21:57;;;;;;;14.52;8.90;;;;;;;18.42;63.82;100765.38;4936260;29;20030;-86
2022/06/08 02:24:30;;;;;;;14.25;9.07;;;;;;;18.47;62.97;100773.69;4952413;29;20027;-85
2022/06/08 02:27:05;;;;;;;12.50;8.98;;;;;;;18.57;62.89;100777.22;4936007;29;20114;-86
2022/06/08 02:29:44;;;;;;;11.88;8.88;;;;;;;18.49;62.84;100774.41;4935856;29;20390;-86
2022/06/08 02:34:56;;;;;;;14.63;9.30;;;;;;;18.35;63.48;100772.88;4952356;29;20113;-87
2022/06/08 02:37:24;;;;;;;13.48;8.95;;;;;;;18.14;63.87;100753.63;4952056;29;20035;-87
2022/06/08 02:40:00;;;;;;;12.70;8.48;;;;;;;18.40;62.72;100782.16;4936372;29;20493;-87
2022/06/08 02:42:28;;;;;;;14.13;8.60;;;;;;;18.31;62.89;100770.63;4951898;29;20057;-88
2022/06/08 02:44:55;;;;;;;14.68;10.00;;;;;;;18.11;62.76;100759.09;4952023;29;20114;-87
2022/06/08 02:47:31;;;;;;;14.07;11.23;;;;;;;18.02;63.10;100786.81;4904830;29;20034;-88
2022/06/08 02:50:00;;;;;;;16.60;10.55;;;;;;;18.01;63.91;100800.03;4936638;29;20031;-86
2022/06/08 02:52:26;;;;;;;18.80;10.63;;;;;;;18.01;63.76;100811.34;4936187;29;20035;-86
2022/06/08 02:54:52;;;;;;;14.73;10.27;;;;;;;17.92;63.92;100805.97;4920250;29;20035;-86
2022/06/08 02:57:30;;;;;;;16.65;10.93;;;;;;;17.83;64.23;100823.22;4904578;29;20114;-86
2022/06/08 03:00:24;;;;;;;16.52;10.55;;;;;;;17.57;64.38;100826.91;4953253;29;20059;-84
2022/06/08 03:03:11;;;;;;;13.93;10.10;;;;;;;17.39;64.83;100829.13;4918705;29;20041;-84
2022/06/08 03:05:47;;;;;;;19.52;11.90;;;;;;;16.97;65.91;100817.41;4935816;29;20038;-84
2022/06/08 03:08:15;;;;;;;15.25;11.30;;;;;;;16.90;66.52;100825.69;4920329;29;20480;-84
2022/06/08 03:10:41;;;;;;;12.50;10.43;;;;;;;17.00;65.69;100832.88;4967520;28;20028;-84
2022/06/08 03:13:29;;;;;;;15.07;10.82;;;;;;;17.13;65.87;100844.13;4904058;29;20046;-84
2022/06/08 03:15:59;;;;;;;15.77;10.38;;;;;;;17.22;65.54;100850.47;4920068;29;20066;-84
2022/06/08 03:18:24;;;;;;;30.10;11.15;;;;;;;17.27;65.67;100850.94;4904439;29;20054;-84
2022/06/08 03:20:50;;;;;;;15.48;10.45;;;;;;;17.27;65.24;100850.94;4920370;29;20024;-84
2022/06/08 03:23:17;;;;;;;19.05;10.23;;;;;;;17.42;65.65;100849.84;4919839;29;20031;-84
2022/06/08 03:25:43;;;;;;;15.70;10.13;;;;;;;17.73;64.16;100851.03;4920021;29;20031;-84
2022/06/08 03:28:09;;;;;;;13.57;10.15;;;;;;;17.60;63.94;100842.38;4935856;29;20115;-84
2022/06/08 03:30:34;;;;;;;12.20;9.75;;;;;;;17.70;64.71;100859.13;4906434;29;20031;-83
2022/06/08 03:33:01;;;;;;;15.02;9.98;;;;;;;17.75;63.88;100856.97;4919454;29;20062;-84
2022/06/08 03:35:26;;;;;;;20.73;10.23;;;;;;;17.80;64.63;100840.91;4919677;29;20038;-84
2022/06/08 03:37:52;;;;;;;12.63;9.32;;;;;;;17.89;63.18;100825.34;4919270;29;20031;-83
2022/06/08 03:40:17;;;;;;;15.05;10.68;;;;;;;17.92;63.16;100853.91;4919096;29;20023;-85
2022/06/08 03:42:43;;;;;;;20.95;10.55;;;;;;;18.34;62.23;100835.84;4903442;29;20047;-84
2022/06/08 03:45:09;;;;;;;14.52;10.77;;;;;;;18.26;62.53;100848.69;4956210;29;20058;-84
2022/06/08 03:47:40;;;;;;;21.55;10.18;;;;;;;18.09;63.09;100839.53;4923482;29;20440;-85
2022/06/08 03:50:07;;;;;;;21.60;10.35;;;;;;;18.15;63.63;100853.94;4939120;29;20035;-84
2022/06/08 03:52:34;;;;;;;13.60;10.07;;;;;;;18.02;63.28;100849.66;4923331;29;20058;-84
2022/06/08 03:55:01;;;;;;;15.15;10.48;;;;;;;18.02;63.65;100844.41;4939152;29;20469;-83
2022/06/08 03:57:28;;;;;;;16.40;10.10;;;;;;;18.11;63.61;100848.13;4907394;29;20027;-84
2022/06/08 03:59:54;;;;;;;15.40;10.73;;;;;;;18.26;62.85;100856.56;4923833;29;20032;-84
2022/06/08 04:02:19;;;;;;;20.58;10.88;;;;;;;18.25;62.53;100865.38;4923107;29;20406;-83
2022/06/08 04:04:45;;;;;;;16.52;11.00;;;;;;;18.27;62.52;100866.06;4922873;29;20031;-84
2022/06/08 04:07:10;;;;;;;17.88;9.63;;;;;;;18.44;62.15;100878.72;4922851;29;20038;-83
2022/06/08 04:09:37;;;;;;;15.90;10.55;;;;;;;18.33;62.03;100865.63;4954559;29;20062;-84
2022/06/08 04:12:03;;;;;;;14.10;10.23;;;;;;;18.57;62.12;100871.53;4923201;29;20028;-83
2022/06/08 04:14:28;;;;;;;12.77;10.70;;;;;;;18.17;61.04;100807.50;4938634;29;20039;-85
2022/06/08 04:16:54;;;;;;;12.98;10.32;;;;;;;18.21;61.43;100840.38;4922835;29;20031;-84
2022/06/08 04:19:19;;;;;;;12.65;10.20;;;;;;;18.45;61.64;100856.78;4922644;29;20046;-83
2022/06/08 04:21:45;;;;;;;13.18;10.80;;;;;;;18.33;62.19;100852.53;4906721;29;20035;-84
2022/06/08 04:24:12;;;;;;;16.00;10.95;;;;;;;18.21;62.26;100859.53;4936355;29;20050;-83
2022/06/08 04:26:37;;;;;;;14.20;10.27;;;;;;;18.24;61.81;100859.31;4919711;29;20042;-86
2022/06/08 04:29:03;;;;;;;15.52;11.00;;;;;;;18.22;61.91;100853.34;4922715;29;20039;-86
2022/06/08 04:31:32;;;;;;;18.25;10.88;;;;;;;18.06;62.04;100822.28;4921893;29;20031;-87
2022/06/08 04:33:58;;;;;;;14.52;10.30;;;;;;;18.34;61.97;100833.22;4954715;29;20469;-87
2022/06/08 04:36:24;;;;;;;13.63;9.93;;;;;;;19.00;60.66;100844.59;4906406;29;20042;-85
2022/06/08 04:38:49;;;;;;;13.43;10.52;;;;;;;18.94;60.08;100826.72;4922867;29;20031;-89
2022/06/08 04:41:15;;;;;;;12.80;9.93;;;;;;;19.32;59.51;100825.41;4923113;29;20063;-91
2022/06/08 04:43:41;;;;;;;18.42;10.10;;;;;;;20.04;57.81;100843.84;4907510;29;20038;-89
2022/06/08 04:46:07;;;;;;;19.40;10.43;;;;;;;19.83;57.12;100816.78;4922046;29;20385;-93
2022/06/08 04:48:33;;;;;;;15.18;11.32;;;;;;;20.28;57.63;100852.25;4922650;29;20389;-89
2022/06/08 04:50:58;;;;;;;14.85;10.60;;;;;;;20.80;55.54;100850.38;4922005;29;20062;-89
2022/06/08 04:53:23;;;;;;;17.77;13.45;;;;;;;20.52;56.85;100830.09;4934978;29;20058;-87
2022/06/08 04:55:49;;;;;;;17.58;10.65;;;;;;;20.49;58.01;100835.63;4921371;29;20015;-88
2022/06/08 04:58:14;;;;;;;14.57;9.75;;;;;;;21.38;55.07;100842.56;4958346;28;20122;-92
2022/06/08 05:00:40;;;;;;;13.40;9.38;;;;;;;20.94;54.70;100838.63;4923446;29;20023;-91
2022/06/08 05:03:05;;;;;;;13.13;9.52;;;;;;;20.91;55.95;100838.91;4953229;29;20031;-85
2022/06/08 05:05:33;;;;;;;13.30;9.18;;;;;;;21.40;54.69;100851.13;4952713;29;20424;-90
2022/06/08 05:07:59;;;;;;;12.90;8.50;;;;;;;21.63;54.62;100840.28;4969476;28;20067;-85
2022/06/08 05:10:26;;;;;;;15.73;9.45;;;;;;;21.57;53.46;100846.97;4945564;29;20520;-84
2022/06/08 05:12:51;;;;;;;14.90;9.50;;;;;;;21.43;54.62;100840.34;4937341;29;20122;-84
2022/06/08 05:15:19;;;;;;;15.63;9.40;;;;;;;21.92;53.59;100832.31;4921702;29;20130;-84
2022/06/08 05:17:45;;;;;;;13.32;9.68;;;;;;;22.12;53.20;100847.13;4952773;29;20046;-83
2022/06/08 05:20:11;;;;;;;18.17;11.73;;;;;;;21.54;53.83;100843.81;4936866;29;20594;-88
2022/06/08 05:22:37;;;;;;;17.25;11.48;;;;;;;21.10;55.04;100854.69;4921102;29;20027;-89
2022/06/08 05:25:04;;;;;;;15.52;12.02;;;;;;;20.92;55.51;100840.56;4936549;29;20031;-85
2022/06/08 05:27:30;;;;;;;16.15;10.65;;;;;;;21.05;56.73;100827.16;4930366;29;20027;-91
2022/06/08 05:29:55;;;;;;;15.32;11.13;;;;;;;21.16;56.13;100848.06;4953398;29;20043;-86
2022/06/08 05:32:21;;;;;;;17.73;11.38;;;;;;;21.45;56.04;100850.72;4968734;28;20031;-90
2022/06/08 05:34:47;;;;;;;17.95;12.13;;;;;;;21.37;55.25;100854.06;4959460;28;20444;-85
2022/06/08 05:37:12;;;;;;;15.52;12.00;;;;;;;21.40;55.04;100856.41;4936657;29;20564;-86
2022/06/08 05:39:38;;;;;;;18.35;12.02;;;;;;;21.20;56.28;100852.91;4921727;29;20031;-93
2022/06/08 05:42:04;;;;;;;21.63;12.77;;;;;;;21.06;56.99;100847.22;4906588;29;20042;-87
2022/06/08 05:44:30;;;;;;;17.63;12.85;;;;;;;21.16;56.77;100824.41;4936378;29;20031;-84
2022/06/08 05:46:55;;;;;;;16.42;12.65;;;;;;;21.30;56.87;100834.50;4952609;29;20377;-89
2022/06/08 05:49:20;;;;;;;15.18;12.40;;;;;;;21.49;56.66;100833.66;4936314;29;20027;-85
2022/06/08 05:51:46;;;;;;;18.15;11.38;;;;;;;21.81;56.41;100841.22;4936692;29;20039;-88
2022/06/08 05:54:12;;;;;;;17.33;13.10;;;;;;;21.63;56.20;100819.22;4920479;29;20031;-85
2022/06/08 05:56:38;;;;;;;17.63;11.60;;;;;;;21.77;56.31;100821.44;4936729;29;20105;-87
2022/06/08 05:59:04;;;;;;;17.65;11.70;;;;;;;22.52;54.49;100836.28;4903102;29;20035;-83
2022/06/08 06:01:31;;;;;;;14.77;11.30;;;;;;;22.71;54.30;100847.69;4927075;29;20031;-85
2022/06/08 06:03:59;;;;;;;18.30;11.65;;;;;;;22.90;53.52;100837.88;4935726;29;20063;-83
2022/06/08 06:06:24;;;;;;;16.20;11.82;;;;;;;22.49;53.89;100841.84;4920568;29;20034;-89
2022/06/08 06:08:50;;;;;;;17.35;11.55;;;;;;;22.67;53.68;100848.97;4952807;28;20035;-88
2022/06/08 06:11:15;;;;;;;14.40;10.23;;;;;;;22.74;54.08;100842.97;4919750;29;20042;-90
2022/06/08 06:13:41;;;;;;;35.90;24.90;;;;;;;22.94;53.12;100841.06;4923005;29;20047;-90
2022/06/08 06:16:07;;;;;;;24.67;19.08;;;;;;;23.04;53.34;100841.81;4922311;29;20043;-92
2022/06/08 06:18:33;;;;;;;17.60;12.80;;;;;;;23.05;53.88;100845.28;4920270;29;20035;-87
2022/06/08 06:20:58;;;;;;;16.13;11.50;;;;;;;22.89;53.54;100845.94;4920099;29;20031;-90
2022/06/08 06:23:25;;;;;;;14.93;11.13;;;;;;;22.90;53.53;100842.31;4951748;28;20039;-90
2022/06/08 06:25:51;;;;;;;14.88;10.75;;;;;;;22.81;53.90;100832.63;4966479;28;20023;-89
2022/06/08 06:28:17;;;;;;;13.07;10.18;;;;;;;23.17;52.98;100846.69;4954176;28;20031;-86
2022/06/08 06:30:42;;;;;;;11.40;9.32;;;;;;;23.21;52.22;100844.63;4940201;29;20035;-88
2022/06/08 06:33:10;;;;;;;12.57;9.55;;;;;;;23.46;51.96;100841.19;4919720;29;20039;-86
2022/06/08 06:35:35;;;;;;;18.20;11.65;;;;;;;23.54;52.40;100835.97;4917585;29;20400;-90
2022/06/08 06:38:01;;;;;;;15.57;9.63;;;;;;;23.60;51.93;100839.84;4931749;29;20039;-90
2022/06/08 06:40:26;;;;;;;11.30;9.68;;;;;;;23.69;52.59;100825.69;4924496;29;20105;-87
2022/06/08 06:42:52;;;;;;;13.45;12.02;;;;;;;23.70;51.49;100820.28;4944711;29;20031;-86
2022/06/08 06:45:17;;;;;;;17.65;12.80;;;;;;;23.83;52.29;100819.03;4921887;29;20077;-85
2022/06/08 06:47:43;;;;;;;12.95;9.32;;;;;;;23.88;51.19;100809.63;4935739;29;20078;-88
2022/06/08 06:50:10;;;;;;;13.00;8.90;;;;;;;23.86;51.28;100816.06;4957514;28;20051;-91
2022/06/08 06:52:35;;;;;;;12.25;8.43;;;;;;;23.92;51.13;100824.19;4927148;29;20027;-87
2022/06/08 06:55:01;;;;;;;12.65;8.80;;;;;;;23.93;51.31;100830.31;4931655;29;20035;-87
2022/06/08 06:57:26;;;;;;;15.73;9.10;;;;;;;24.04;52.04;100816.81;4959352;28;20822;-85
2022/06/08 06:59:52;;;;;;;9.73;8.73;;;;;;;24.27;51.40;100820.56;4910381;29;20035;-87
2022/06/08 07:02:19;;;;;;;12.32;8.77;;;;;;;24.22;50.67;100814.94;4959845;28;20035;-86
2022/06/08 07:04:45;;;;;;;16.05;9.05;;;;;;;24.43;50.74;100824.28;4922186;29;20043;-88
2022/06/08 07:07:11;;;;;;;12.85;9.05;;;;;;;24.57;50.14;100829.78;4938846;29;20083;-86
2022/06/08 07:09:36;;;;;;;17.48;12.70;;;;;;;24.55;49.58;100820.34;4938846;29;20515;-88
2022/06/08 07:12:02;;;;;;;10.75;8.07;;;;;;;24.55;48.49;100812.41;4945249;29;20618;-87
2022/06/08 07:14:27;;;;;;;13.18;8.82;;;;;;;24.74;49.55;100814.78;4951661;28;20043;-91
2022/06/08 07:16:53;;;;;;;10.55;7.90;;;;;;;24.91;48.30;100825.41;4919996;29;20067;-91
2022/06/08 07:19:18;;;;;;;11.07;8.93;;;;;;;25.05;49.18;100827.44;4913370;29;20028;-89
2022/06/08 07:21:44;;;;;;;15.75;8.02;;;;;;;25.12;47.44;100833.72;4942653;29;20054;-85
2022/06/08 07:24:20;;;;;;;14.00;7.78;;;;;;;25.14;47.58;100827.28;4911151;29;20039;-85
2022/06/08 07:26:46;;;;;;;10.75;7.55;;;;;;;25.21;47.32;100823.97;4938351;28;20107;-89
2022/06/08 07:29:13;;;;;;;8.07;7.20;;;;;;;25.21;47.23;100822.16;4894087;29;20034;-87
2022/06/08 07:31:38;;;;;;;11.77;7.53;;;;;;;25.33;46.88;100823.47;4922557;29;20094;-85
2022/06/08 07:34:04;;;;;;;9.48;7.00;;;;;;;25.46;46.26;100815.84;4922331;29;20028;-87
2022/06/08 07:36:29;;;;;;;15.40;8.90;;;;;;;25.58;46.53;100818.16;4926307;29;20038;-86
2022/06/08 07:38:56;;;;;;;10.38;7.57;;;;;;;25.68;46.48;100824.09;4926084;29;20062;-87
2022/06/08 07:41:22;;;;;;;11.60;7.35;;;;;;;25.65;45.36;100824.44;4948703;28;20044;-87
2022/06/08 07:43:48;;;;;;;11.18;6.93;;;;;;;25.64;45.83;100814.81;4917200;29;20067;-85
2022/06/08 07:46:13;;;;;;;8.73;6.47;;;;;;;25.61;45.39;100812.53;4959343;28;20036;-88
2022/06/08 07:51:22;;;;;;;8.27;6.07;;;;;;;25.66;44.44;100816.34;4935401;29;20043;-86
2022/06/08 07:53:48;;;;;;;6.72;5.93;;;;;;;25.55;44.78;100792.00;4913644;29;20040;-87
2022/06/08 07:56:13;;;;;;;7.07;6.05;;;;;;;25.50;44.98;100816.34;4930558;29;20035;-85
2022/06/08 07:58:39;;;;;;;9.68;6.05;;;;;;;25.51;45.27;100817.19;4937543;29;20028;-91
2022/06/08 08:01:05;;;;;;;10.00;5.80;;;;;;;25.50;45.06;100794.34;4924375;29;20450;-86
2022/06/08 08:03:31;;;;;;;9.38;5.82;;;;;;;25.83;44.66;100819.78;4918788;29;20039;-86
2022/06/08 08:05:57;;;;;;;8.80;6.03;;;;;;;25.78;44.50;100802.75;4917077;29;20036;-86
2022/06/08 08:08:22;;;;;;;9.38;5.70;;;;;;;26.03;43.76;100821.06;4926098;29;20035;-86
2022/06/08 08:10:48;;;;;;;9.23;6.35;;;;;;;26.10;42.72;100815.91;4925332;29;20513;-86
2022/06/08 08:13:14;;;;;;;15.38;6.40;;;;;;;26.41;42.39;100820.44;4931903;28;20147;-86
2022/06/08 08:15:40;;;;;;;8.63;6.72;;;;;;;26.52;41.47;100807.63;4916816;29;20650;-87
2022/06/08 08:18:06;;;;;;;11.95;7.43;;;;;;;26.79;41.93;100824.06;4940141;28;20031;-92
2022/06/08 08:20:31;;;;;;;13.77;5.60;;;;;;;26.75;41.21;100797.03;4944070;28;20114;-88
2022/06/08 08:22:58;;;;;;;8.60;5.57;;;;;;;26.78;41.12;100815.25;4948638;28;20039;-85
2022/06/08 08:25:23;;;;;;;12.73;5.32;;;;;;;26.53;41.56;100803.97;4919835;29;20031;-87
2022/06/08 08:27:49;;;;;;;8.25;5.07;;;;;;;26.64;41.81;100812.53;4938867;28;20046;-90
2022/06/08 08:30:21;;;;;;;9.63;5.75;;;;;;;26.69;41.94;100808.34;4893672;29;20045;-86
2022/06/08 08:32:46;;;;;;;10.02;5.80;;;;;;;26.47;41.57;100777.31;4925166;29;20044;-89
2022/06/08 08:35:12;;;;;;;7.47;5.30;;;;;;;26.81;40.94;100803.47;4930494;29;20055;-89
2022/06/08 08:37:37;;;;;;;5.38;4.88;;;;;;;26.74;40.44;100778.63;4943487;28;20086;-88
2022/06/08 08:40:07;;;;;;;7.80;4.68;;;;;;;26.70;40.54;100801.22;4928694;29;20039;-85
2022/06/08 08:42:33;;;;;;;7.40;5.20;;;;;;;26.93;40.70;100793.25;4927727;29;20036;-88
2022/06/08 08:45:01;;;;;;;7.95;4.93;;;;;;;27.19;40.49;100787.59;4896986;29;20028;-86
2022/06/08 08:47:35;;;;;;;19.92;14.70;;;;;;;27.42;39.15;100799.00;4898413;29;20055;-87
2022/06/08 08:50:30;;;;;;;12.35;4.82;;;;;;;27.10;38.74;100792.16;4931849;29;20036;-84
2022/06/08 08:53:14;;;;;;;6.60;4.80;;;;;;;27.06;38.69;100789.03;4928056;29;20027;-85
2022/06/08 08:55:42;;;;;;;7.85;4.65;;;;;;;26.93;38.52;100764.88;4928517;29;20945;-84
2022/06/08 08:58:07;;;;;;;8.85;4.82;;;;;;;27.14;39.08;100791.63;4927993;29;20108;-92
2022/06/08 09:00:43;;;;;;;6.65;4.63;;;;;;;27.20;38.93;100790.09;4926874;29;20023;-90
2022/06/08 09:03:32;;;;;;;7.00;4.80;;;;;;;27.28;39.55;100771.41;4920694;29;20520;-88
2022/06/08 09:06:00;;;;;;;12.25;5.00;;;;;;;27.47;39.83;100775.41;4904260;29;20421;-85
2022/06/08 09:08:26;;;;;;;5.63;5.00;;;;;;;27.69;39.80;100769.19;4905471;29;20038;-84
2022/06/08 09:10:52;;;;;;;9.43;6.10;;;;;;;27.81;38.68;100766.09;4927849;29;20040;-91
2022/06/08 09:13:37;;;;;;;7.82;5.35;;;;;;;27.84;38.70;100771.88;4940322;28;20032;-87
2022/06/08 09:16:03;;;;;;;8.52;6.18;;;;;;;27.77;38.87;100759.50;4930222;29;20047;-87
2022/06/08 09:18:29;;;;;;;8.23;5.50;;;;;;;27.89;39.10;100763.34;4947172;29;20042;-89
2022/06/08 09:20:54;;;;;;;7.53;5.15;;;;;;;27.81;38.22;100748.28;4952312;29;20058;-88
2022/06/08 09:23:41;;;;;;;6.78;4.38;;;;;;;27.93;38.94;100749.50;4929600;29;20067;-90
2022/06/08 09:26:26;;;;;;;6.75;4.68;;;;;;;28.04;38.03;100753.53;4926400;29;20035;-85
2022/06/08 09:29:08;;;;;;;6.72;4.15;;;;;;;27.98;38.02;100749.75;4920767;29;20106;-85
2022/06/08 09:31:35;;;;;;;9.60;4.50;;;;;;;28.07;38.09;100758.47;4920963;29;20031;-90
2022/06/08 09:34:27;;;;;;;5.43;4.55;;;;;;;28.09;37.30;100753.78;4921154;29;20504;-87
2022/06/08 09:37:11;;;;;;;6.68;4.95;;;;;;;27.84;37.75;100729.34;4930937;29;20505;-88
2022/06/08 09:39:37;;;;;;;6.32;4.50;;;;;;;28.15;38.05;100750.38;4906312;29;20039;-85
2022/06/08 09:42:34;;;;;;;6.07;4.90;;;;;;;28.26;37.46;100731.28;4919800;29;20437;-86
2022/06/08 09:45:11;;;;;;;6.80;4.40;;;;;;;28.44;37.25;100738.03;4900060;29;20054;-89
2022/06/08 09:53:36;;;;;;;6.07;4.25;;;;;;;28.70;36.35;100740.13;4953508;29;20583;-89
2022/06/08 09:56:24;;;;;;;6.53;4.00;;;;;;;29.02;35.11;100733.50;4935106;29;20027;-87
2022/06/08 09:58:49;;;;;;;8.07;4.35;;;;;;;28.95;36.45;100732.59;4966028;28;20110;-90
2022/06/08 10:01:27;;;;;;;5.22;4.10;;;;;;;28.97;35.78;100710.09;4951797;29;20373;-91
2022/06/08 10:04:14;;;;;;;6.35;4.25;;;;;;;28.96;35.33;100720.94;4946326;29;20109;-88
2022/06/08 10:07:22;;;;;;;6.00;4.28;;;;;;;28.89;35.91;100718.22;4950038;28;20126;-85
2022/06/08 10:09:58;;;;;;;7.13;4.82;;;;;;;28.85;36.11;100693.78;4943495;29;20050;-94
2022/06/08 10:12:38;;;;;;;5.93;4.68;;;;;;;28.90;36.04;100716.38;4951433;28;20074;-93
2022/06/08 10:15:31;;;;;;;6.22;4.28;;;;;;;28.88;35.64;100694.41;4951181;29;20055;-90
2022/06/08 10:18:22;;;;;;;4.97;4.35;;;;;;;29.31;35.50;100704.00;4935733;29;20075;-90
2022/06/08 10:20:55;;;;;;;8.30;4.45;;;;;;;29.47;35.69;100710.84;4936054;29;20035;-86
2022/06/08 10:23:42;;;;;;;9.48;4.57;;;;;;;29.45;34.59;100707.53;4922051;29;20035;-87
2022/06/08 10:26:29;;;;;;;9.98;4.45;;;;;;;29.43;34.21;100709.59;4929923;29;20054;-87
2022/06/08 10:29:16;;;;;;;5.70;4.45;;;;;;;29.31;34.18;100688.00;4953406;29;20031;-88
2022/06/08 10:31:46;;;;;;;6.00;3.78;;;;;;;29.38;34.14;100693.34;4968787;28;20031;-94
2022/06/08 10:34:19;;;;;;;6.93;5.00;;;;;;;29.36;33.83;100698.88;4953828;29;20034;-93
2022/06/08 10:36:53;;;;;;;6.55;3.72;;;;;;;29.62;33.59;100697.44;4928436;29;20027;-85
2022/06/08 10:39:19;;;;;;;5.07;3.65;;;;;;;29.77;32.64;100689.28;4934809;29;20567;-86
2022/06/08 10:42:40;;;;;;;9.45;4.00;;;;;;;29.68;33.04;100691.28;4954552;29;20051;-90
2022/06/08 10:45:24;;;;;;;6.65;4.05;;;;;;;29.66;32.81;100690.66;4934689;29;20035;-87
2022/06/08 10:48:15;;;;;;;8.68;5.00;;;;;;;29.83;33.31;100694.63;4934249;29;20031;-86
2022/06/08 10:50:43;;;;;;;5.60;4.25;;;;;;;29.89;33.75;100693.84;4946544;29;20051;-87
2022/06/08 10:56:36;;;;;;;6.55;3.55;;;;;;;30.29;32.01;100686.00;4952063;29;20049;-87
2022/06/08 10:59:08;;;;;;;7.43;3.70;;;;;;;30.41;32.18;100692.38;4945590;29;20050;-86
2022/06/08 11:01:55;;;;;;;5.47;3.80;;;;;;;30.50;32.24;100688.47;4949593;29;20054;-86
2022/06/08 11:04:26;;;;;;;5.88;3.22;;;;;;;30.65;30.76;100677.63;4952427;29;20070;-92
2022/06/08 11:07:16;;;;;;;6.32;3.50;;;;;;;30.80;31.03;100677.44;4939526;29;20412;-94
2022/06/08 11:09:46;;;;;;;5.03;3.80;;;;;;;30.89;30.31;100660.16;4911216;29;20039;-90
2022/06/08 11:12:12;;;;;;;5.72;3.92;;;;;;;30.85;30.83;100677.63;4923238;29;20083;-90
2022/06/08 11:14:43;;;;;;;5.32;3.40;;;;;;;30.74;31.04;100681.72;4950830;29;20051;-92
2022/06/08 11:17:30;;;;;;;5.78;3.55;;;;;;;30.90;29.71;100675.16;4951214;29;20055;-92
2022/06/08 11:19:59;;;;;;;8.07;4.10;;;;;;;30.76;30.09;100657.50;4935396;29;20053;-86
2022/06/08 11:22:32;;;;;;;6.28;3.72;;;;;;;30.60;31.07;100658.72;4913502;29;20046;-87
2022/06/08 11:25:01;;;;;;;8.38;4.07;;;;;;;30.61;31.67;100651.53;4919101;29;20090;-91
2022/06/08 11:27:31;;;;;;;7.75;4.20;;;;;;;30.80;32.43;100672.91;4918471;29;20094;-90
2022/06/08 11:30:05;;;;;;;4.35;3.95;;;;;;;30.73;32.33;100668.59;4919389;29;20028;-89
2022/06/08 11:32:33;;;;;;;7.85;4.30;;;;;;;30.72;31.88;100669.63;4928685;29;20535;-89
2022/06/08 11:35:13;;;;;;;8.32;4.40;;;;;;;30.35;32.47;100639.78;4935670;29;20082;-89
2022/06/08 11:37:44;;;;;;;7.65;4.40;;;;;;;30.53;32.37;100671.22;4972749;28;20027;-86
2022/06/08 11:40:19;;;;;;;7.97;4.70;;;;;;;30.49;32.25;100657.47;4951449;29;20036;-87
2022/06/08 11:42:52;;;;;;;7.15;4.43;;;;;;;30.33;32.70;100660.53;4915251;29;20122;-86
2022/06/08 11:45:20;;;;;;;7.88;4.50;;;;;;;29.92;33.17;100658.78;4926746;29;20031;-86
2022/06/08 11:47:58;;;;;;;4.95;4.28;;;;;;;29.61;33.24;100642.47;4918854;29;20043;-87
2022/06/08 11:50:26;;;;;;;9.20;4.78;;;;;;;29.59;34.13;100650.63;4945656;29;20458;-91